Time;durP1;ratioP1;P1;durP2;ratioP2;P2;SDS_P1;SDS_P2;PMS_P1;PMS_P2;Temp;Humidity;BMP_temperature;BMP_pressure;BME280_temperature;BME280_humidity;BME280_pressure;Samples;Min_cycle;Max_cycle;Signal;HPM_P1;HPM_P2
2022/09/30 00:01:49;;;;;;;14.00;12.57;;;7.80;99.90;;;-141.84;86.59;18066.41;5052401;28;20282;-72
2022/09/30 00:04:21;;;;;;;14.47;12.97;;;7.70;99.90;;;-141.84;86.89;18094.84;5052542;28;20972;-70
2022/09/30 00:06:52;;;;;;;13.33;11.93;;;7.70;99.90;;;-141.84;86.91;18058.28;5052356;28;20198;-70
2022/09/30 00:09:21;;;;;;;14.50;13.10;;;7.70;99.90;;;-141.84;87.08;18044.06;5053057;28;20209;-69
2022/09/30 00:11:50;;;;;;;13.27;11.90;;;7.60;99.90;;;-141.84;87.23;18035.94;5052084;28;20221;-69
2022/09/30 00:14:20;;;;;;;15.00;13.40;;;7.60;99.90;;;-141.84;87.14;18072.50;5052454;28;20711;-70
2022/09/30 00:16:50;;;;;;;14.00;11.83;;;7.60;99.90;;;-141.84;87.29;18068.44;5052390;28;20224;-69
2022/09/30 00:19:18;;;;;;;12.77;11.47;;;7.50;99.90;;;-141.84;87.02;18025.78;5052430;28;20229;-70
2022/09/30 00:21:46;;;;;;;13.07;11.67;;;7.50;99.90;;;-141.84;87.01;18046.09;5051726;28;20308;-70
2022/09/30 00:24:14;;;;;;;14.10;12.60;;;7.50;99.90;;;-141.84;86.75;18042.03;5052549;28;20197;-70
2022/09/30 00:26:43;;;;;;;14.27;12.77;;;7.50;99.90;;;-141.84;86.26;18044.06;5052217;28;20259;-70
2022/09/30 00:29:11;;;;;;;14.73;13.13;;;7.50;99.90;;;-141.84;85.94;18017.66;5052318;28;20236;-69
2022/09/30 00:31:39;;;;;;;14.60;12.23;;;7.50;99.90;;;-141.84;86.09;18050.16;5051937;28;20229;-69
2022/09/30 00:34:11;;;;;;;14.13;11.73;;;7.50;99.90;;;-141.84;86.40;18046.09;5052275;28;20451;-68
2022/09/30 00:36:45;;;;;;;13.20;11.47;;;7.50;99.90;;;-141.84;86.61;18017.66;5052447;28;20255;-69
2022/09/30 00:39:17;;;;;;;13.80;12.37;;;7.50;99.90;;;-141.84;86.45;18040.00;5052357;28;20228;-71
2022/09/30 00:41:50;;;;;;;13.17;11.47;;;7.50;99.90;;;-141.84;86.23;17993.28;5051754;28;20790;-69
2022/09/30 00:44:52;;;;;;;12.93;11.10;;;7.40;99.90;;;-141.84;86.74;18001.41;5051685;28;20233;-70
2022/09/30 00:47:36;;;;;;;12.73;11.43;;;7.40;99.90;;;-141.84;86.78;18042.03;5051547;28;20224;-69
2022/09/30 00:50:18;;;;;;;12.40;11.10;;;7.40;99.90;;;-141.84;85.31;18042.03;5051916;28;20226;-68
2022/09/30 00:52:56;;;;;;;12.47;11.17;;;7.50;99.90;;;-141.84;84.62;17983.13;5051482;28;20225;-69
2022/09/30 00:55:36;;;;;;;12.40;11.07;;;7.50;99.90;;;-141.84;84.58;18037.97;5051719;28;20231;-69
2022/09/30 00:58:09;;;;;;;11.20;10.07;;;7.40;99.90;;;-141.84;84.68;18001.41;5051502;28;20227;-69
2022/09/30 01:00:37;;;;;;;12.17;10.93;;;7.40;99.90;;;-141.84;85.21;17993.28;5051917;28;20186;-69
2022/09/30 01:03:07;;;;;;;12.80;11.37;;;7.30;99.90;;;-141.84;86.00;17987.19;5051278;28;20410;-70
2022/09/30 01:05:36;;;;;;;13.73;10.90;;;7.30;99.90;;;-141.84;85.84;18001.41;5051182;28;20229;-70
2022/09/30 01:08:08;;;;;;;11.57;10.37;;;7.30;99.90;;;-141.84;85.74;17987.19;5031102;28;20226;-69
2022/09/30 01:10:36;;;;;;;11.97;10.77;;;7.60;99.90;;;-141.84;86.07;18027.81;5040746;28;20236;-68
2022/09/30 01:13:05;;;;;;;12.33;11.03;;;7.20;99.90;;;-141.84;86.45;18013.59;5052919;28;20236;-69
2022/09/30 01:16:05;;;;;;;14.13;11.77;;;7.20;99.90;;;-141.84;86.62;17972.97;5052020;28;20239;-70
2022/09/30 01:18:52;;;;;;;13.63;12.07;;;7.20;99.90;;;-141.84;84.78;17997.34;5031690;28;20569;-70
2022/09/30 01:22:12;;;;;;;13.37;12.03;;;7.30;99.90;;;-141.84;84.70;17985.16;5050858;28;20201;-70
2022/09/30 01:25:24;;;;;;;13.63;11.03;;;7.20;99.90;;;-141.84;84.14;18021.72;5024948;28;20237;-69
2022/09/30 01:28:36;;;;;;;13.13;11.17;;;7.30;99.90;;;-141.84;83.77;17993.28;5050563;28;20181;-68
2022/09/30 01:31:25;;;;;;;12.03;10.73;;;7.20;99.90;;;-141.84;84.28;17985.16;5046736;28;20701;-69
2022/09/30 01:34:07;;;;;;;13.00;11.63;;;7.20;99.90;;;-141.84;84.85;17991.25;5050925;28;20209;-70
2022/09/30 01:36:55;;;;;;;11.87;10.57;;;7.10;99.90;;;-141.84;85.02;17975.00;5051174;28;20704;-69
2022/09/30 01:39:38;;;;;;;12.80;11.50;;;7.10;99.90;;;-141.84;85.19;17987.19;5051435;28;20206;-70
2022/09/30 01:42:18;;;;;;;13.10;11.70;;;7.10;99.90;;;-141.84;84.65;18001.41;5050647;28;20316;-69
2022/09/30 01:45:02;;;;;;;12.80;11.50;;;7.20;99.90;;;-141.84;84.63;17981.09;5050755;28;20224;-69
2022/09/30 01:47:42;;;;;;;14.03;11.77;;;7.10;99.90;;;-141.84;85.01;18015.63;5050582;28;20224;-70
2022/09/30 01:50:19;;;;;;;13.27;11.57;;;7.10;99.90;;;-141.84;84.99;17985.16;5050567;28;20228;-70
2022/09/30 01:53:02;;;;;;;15.43;11.77;;;7.20;99.90;;;-141.84;84.39;18005.47;5050726;28;20260;-69
2022/09/30 01:55:39;;;;;;;11.57;10.40;;;7.20;99.90;;;-141.84;84.42;17985.16;5050813;28;20270;-69
2022/09/30 01:58:17;;;;;;;12.93;11.43;;;7.10;99.90;;;-141.84;84.03;17970.94;5050565;28;20224;-70
2022/09/30 02:00:52;;;;;;;12.73;10.77;;;7.20;99.90;;;-141.84;83.62;17997.34;5050614;28;20185;-70
2022/09/30 02:03:30;;;;;;;12.57;11.23;;;7.20;99.90;;;-141.84;83.99;18001.41;5051061;28;20189;-68
2022/09/30 02:06:03;;;;;;;12.43;11.00;;;7.10;99.90;;;-141.84;84.27;17966.88;5048171;28;20782;-69
2022/09/30 02:08:41;;;;;;;13.03;11.20;;;7.10;99.90;;;-141.84;84.51;17981.09;5030224;28;20244;-71
2022/09/30 02:11:17;;;;;;;14.40;10.90;;;7.00;99.90;;;-141.84;84.28;17997.34;5029985;28;20309;-70
2022/09/30 02:13:51;;;;;;;12.00;10.80;;;7.00;99.90;;;-141.84;84.21;17981.09;5030009;28;20225;-70
2022/09/30 02:16:28;;;;;;;12.50;10.87;;;7.10;99.90;;;-141.84;84.49;17987.19;5030298;28;20233;-70
2022/09/30 02:19:02;;;;;;;12.37;11.07;;;7.00;99.90;;;-141.84;83.65;17981.09;5030217;28;20670;-69
2022/09/30 02:21:39;;;;;;;12.03;10.83;;;7.10;99.90;;;-141.84;83.45;17966.88;5030663;28;20182;-69
2022/09/30 02:24:14;;;;;;;12.77;10.87;;;7.10;99.90;;;-141.84;83.34;17972.97;5050604;28;20209;-70
2022/09/30 02:26:47;;;;;;;11.83;10.63;;;7.00;99.90;;;-141.84;83.70;18005.47;5049195;28;20754;-69
2022/09/30 02:29:21;;;;;;;11.80;10.37;;;7.00;99.90;;;-141.84;84.05;17985.16;5050189;28;20224;-70
2022/09/30 02:31:56;;;;;;;11.83;10.63;;;7.00;99.90;;;-141.84;84.29;17995.31;5049781;28;20623;-69
2022/09/30 02:34:31;;;;;;;11.77;10.40;;;6.90;99.90;;;-141.84;84.90;17981.09;5050030;28;20239;-70
2022/09/30 02:37:07;;;;;;;12.53;11.23;;;6.90;99.90;;;-141.84;84.72;17968.91;5049947;28;20192;-70
2022/09/30 02:39:47;;;;;;;11.87;10.50;;;6.90;99.90;;;-141.84;84.55;17964.84;5050332;28;20684;-69
2022/09/30 02:42:20;;;;;;;12.80;11.60;;;6.90;99.90;;;-141.84;84.50;17930.31;5050234;28;20616;-69
2022/09/30 02:44:52;;;;;;;14.73;11.63;;;6.80;99.90;;;-141.84;84.57;17975.00;5049661;28;20221;-70
2022/09/30 02:47:33;;;;;;;13.57;11.80;;;6.80;99.90;;;-141.84;84.81;17970.94;5049633;28;20229;-70
2022/09/30 02:50:16;;;;;;;13.37;11.90;;;6.90;99.90;;;-141.84;85.29;17968.91;5049628;28;20807;-69
2022/09/30 02:53:03;;;;;;;15.17;12.27;;;6.80;99.90;;;-141.84;85.03;17952.66;5049366;28;20789;-70
2022/09/30 02:55:44;;;;;;;13.47;11.57;;;6.90;99.90;;;-141.84;85.47;17972.97;5049455;28;20727;-71
2022/09/30 02:58:19;;;;;;;13.13;11.70;;;6.90;99.90;;;-141.84;85.56;17952.66;5049578;28;20233;-69
2022/09/30 03:00:48;;;;;;;12.70;11.37;;;6.80;99.90;;;-141.84;86.01;17916.06;5049674;28;20196;-70
2022/09/30 03:03:23;;;;;;;12.63;11.30;;;6.80;99.90;;;-141.84;86.07;17905.91;5038704;28;20205;-70
2022/09/30 03:05:53;;;;;;;13.37;11.97;;;6.90;99.90;;;-141.84;86.08;17922.16;5027725;28;20220;-69
2022/09/30 03:08:21;;;;;;;13.10;11.80;;;6.80;99.90;;;-141.84;85.97;17942.50;5009667;28;20285;-70
2022/09/30 03:10:52;;;;;;;11.63;10.57;;;6.80;99.90;;;-141.84;84.51;17948.59;5009487;28;20824;-69
2022/09/30 03:13:51;;;;;;;12.50;11.27;;;6.80;99.90;;;-141.84;84.32;17952.66;5009720;28;20265;-70
2022/09/30 03:16:33;;;;;;;11.60;10.40;;;6.80;99.90;;;-141.84;84.70;17946.56;5009766;28;20646;-69
2022/09/30 03:19:27;;;;;;;11.60;10.43;;;6.70;99.90;;;-141.84;84.80;17934.38;5016583;28;20275;-70
2022/09/30 03:22:32;;;;;;;11.40;10.23;;;6.70;99.90;;;-141.84;83.61;17958.75;5029477;28;20212;-69
2022/09/30 03:25:22;;;;;;;11.70;10.50;;;6.90;99.90;;;-141.84;83.87;17930.31;5029528;28;20221;-72
2022/09/30 03:28:10;;;;;;;12.30;11.07;;;6.80;99.90;;;-141.84;84.14;17956.72;5029622;28;20274;-71
2022/09/30 03:30:51;;;;;;;11.50;10.03;;;6.80;99.90;;;-141.84;84.39;17942.50;5029846;28;20195;-70
2022/09/30 03:33:30;;;;;;;11.70;10.40;;;6.70;99.90;;;-141.84;84.97;17932.34;5049373;28;20209;-69
2022/09/30 03:36:06;;;;;;;13.20;10.73;;;6.70;99.90;;;-141.84;85.00;17938.44;5049044;28;20237;-67
2022/09/30 03:38:48;;;;;;;11.77;10.07;;;6.60;99.90;;;-141.84;85.42;17920.13;5049135;28;20228;-69
2022/09/30 03:41:30;;;;;;;12.33;11.03;;;6.70;99.90;;;-141.84;85.72;17909.97;5049373;28;20229;-70
2022/09/30 03:44:08;;;;;;;11.43;10.23;;;6.60;99.90;;;-141.84;86.02;17942.50;5049286;28;20229;-71
2022/09/30 03:46:43;;;;;;;10.93;9.80;;;6.50;99.90;;;-141.84;85.57;17907.94;5050497;28;20719;-69
2022/09/30 03:49:18;;;;;;;12.07;10.67;;;6.50;99.90;;;-141.84;85.31;17920.13;5053083;28;20598;-68
2022/09/30 03:51:47;;;;;;;14.50;10.10;;;6.50;99.90;;;-141.84;85.17;17916.06;5052889;28;20221;-69
2022/09/30 03:54:19;;;;;;;11.73;10.40;;;6.50;99.90;;;-141.84;85.04;17907.94;5053167;28;20244;-69
2022/09/30 03:56:47;;;;;;;12.07;10.20;;;6.50;99.90;;;-141.84;85.31;17907.94;5052743;28;20724;-70
2022/09/30 03:59:24;;;;;;;11.93;10.40;;;6.50;99.90;;;-141.84;85.66;17889.66;5043483;28;20225;-69
2022/09/30 04:01:52;;;;;;;12.43;10.27;;;6.40;99.90;;;-141.84;86.03;17903.88;5032738;28;20252;-69
2022/09/30 04:04:21;;;;;;;11.13;10.03;;;6.50;99.90;;;-141.84;86.67;17873.41;5032912;28;20676;-70
2022/09/30 04:06:49;;;;;;;11.37;10.27;;;6.40;99.90;;;-141.84;87.03;17889.66;5023270;28;20285;-71
2022/09/30 04:09:18;;;;;;;13.60;10.40;;;6.40;99.90;;;-141.84;86.82;17873.41;5013540;28;20217;-70
2022/09/30 04:11:47;;;;;;;12.70;10.63;;;6.40;99.90;;;-141.84;86.95;17897.78;5013096;28;20264;-69
2022/09/30 04:14:15;;;;;;;11.50;10.37;;;6.40;99.90;;;-141.84;86.98;17897.78;5012600;28;20234;-69
2022/09/30 04:16:43;;;;;;;11.80;10.43;;;6.50;99.90;;;-141.84;87.12;17889.66;5012755;28;20231;-70
2022/09/30 04:19:11;;;;;;;11.80;10.23;;;6.50;99.90;;;-141.84;87.05;17905.91;5020613;28;20233;-70
2022/09/30 04:21:39;;;;;;;10.03;9.03;;;6.40;99.90;;;-141.84;87.03;17897.78;5033002;28;20217;-70
2022/09/30 04:24:08;;;;;;;11.27;9.37;;;6.40;99.90;;;-141.84;87.03;17891.69;5032574;28;20226;-70
2022/09/30 04:26:37;;;;;;;12.50;10.23;;;6.40;99.90;;;-141.84;87.14;17879.50;5048027;28;20232;-71
2022/09/30 04:29:05;;;;;;;10.97;9.23;;;6.40;99.90;;;-141.84;87.33;17873.41;5040922;28;20230;-70
2022/09/30 04:31:33;;;;;;;10.80;9.70;;;6.30;99.90;;;-141.84;87.01;17903.88;5039297;28;20240;-69
2022/09/30 04:34:02;;;;;;;11.70;9.90;;;6.30;99.90;;;-141.84;86.73;17879.50;5052336;28;20311;-70
2022/09/30 04:36:30;;;;;;;12.67;10.50;;;6.30;99.90;;;-141.84;86.88;17869.34;5052488;28;20224;-70
2022/09/30 04:38:58;;;;;;;14.90;10.27;;;6.30;99.90;;;-141.84;86.93;17871.38;5051817;28;20244;-69
2022/09/30 04:41:26;;;;;;;13.77;10.03;;;6.30;99.90;;;-141.84;86.92;17853.09;5051823;28;20224;-70
2022/09/30 04:43:55;;;;;;;9.77;8.77;;;6.30;99.90;;;-141.84;87.27;17877.47;5052115;28;20232;-69
2022/09/30 04:46:24;;;;;;;11.17;9.83;;;6.30;99.90;;;-141.84;87.49;17889.66;5051970;28;20319;-69
2022/09/30 04:48:52;;;;;;;10.73;9.30;;;6.20;99.90;;;-141.84;87.26;17859.19;5051809;28;20631;-70
2022/09/30 04:51:21;;;;;;;9.80;8.77;;;6.20;99.90;;;-141.84;87.28;17847.00;5052402;28;20251;-69
2022/09/30 04:53:50;;;;;;;13.40;9.77;;;6.30;99.90;;;-141.84;86.73;17907.94;5051784;28;20250;-69
2022/09/30 04:56:18;;;;;;;11.33;9.60;;;6.30;99.90;;;-141.84;85.95;17889.66;5036497;28;20234;-68
2022/09/30 04:58:46;;;;;;;12.13;9.23;;;6.30;99.90;;;-141.84;85.96;17899.81;5030851;28;20248;-71
2022/09/30 05:01:17;;;;;;;10.83;9.10;;;6.30;99.90;;;-141.84;86.02;17859.19;5031538;28;20263;-70
2022/09/30 05:03:47;;;;;;;9.97;8.97;;;6.30;99.90;;;-141.84;86.11;17851.06;5031679;28;20204;-70
2022/09/30 05:06:16;;;;;;;10.03;8.93;;;6.20;99.90;;;-141.84;86.51;17863.25;5027055;28;20198;-69
2022/09/30 05:08:44;;;;;;;10.13;9.13;;;6.20;99.90;;;-141.84;86.74;17851.06;5011981;28;20230;-70
2022/09/30 05:11:17;;;;;;;10.10;8.87;;;6.20;99.90;;;-141.84;86.77;17867.31;5011755;28;20234;-71
2022/09/30 05:13:47;;;;;;;9.93;8.93;;;6.20;99.90;;;-141.84;86.86;17869.34;5012765;28;20250;-70
2022/09/30 05:16:17;;;;;;;12.50;9.80;;;6.20;99.90;;;-141.84;87.17;17861.22;5012386;28;20295;-69
2022/09/30 05:18:45;;;;;;;9.93;8.80;;;6.20;99.90;;;-141.84;87.23;17855.13;5016911;28;20669;-69
2022/09/30 05:21:16;;;;;;;10.27;9.17;;;6.20;99.90;;;-141.84;86.05;17885.59;5032091;28;20248;-70
2022/09/30 05:23:46;;;;;;;10.60;8.93;;;6.30;99.90;;;-141.84;85.76;17887.63;5032273;28;20320;-69
2022/09/30 05:26:14;;;;;;;11.03;9.33;;;6.30;99.90;;;-141.84;85.98;17857.16;5031872;28;20283;-69
2022/09/30 05:28:43;;;;;;;11.53;9.60;;;6.20;99.90;;;-141.84;86.34;17877.47;5031962;28;20243;-67
2022/09/30 05:31:12;;;;;;;11.73;9.67;;;6.20;99.90;;;-141.84;86.53;17863.25;5031479;28;20245;-68
2022/09/30 05:33:41;;;;;;;11.77;9.90;;;6.30;99.90;;;-141.84;85.11;17871.38;5032680;28;20217;-67
2022/09/30 05:36:14;;;;;;;10.57;9.20;;;6.40;99.90;;;-141.84;84.03;17897.78;5051982;28;20278;-67
2022/09/30 05:38:42;;;;;;;9.50;8.50;;;6.40;99.90;;;-141.84;83.82;17928.28;5051471;28;20728;-67
2022/09/30 05:41:13;;;;;;;10.33;9.23;;;6.40;99.90;;;-141.84;84.07;17895.75;5051512;28;20225;-68
2022/09/30 05:43:46;;;;;;;10.67;9.47;;;6.40;99.90;;;-141.84;84.55;17903.88;5051572;28;20271;-68
2022/09/30 05:46:15;;;;;;;10.67;9.57;;;6.40;99.90;;;-141.84;84.81;17873.41;5051451;28;20299;-68
2022/09/30 05:48:45;;;;;;;11.00;9.50;;;6.50;99.90;;;-141.84;85.32;17901.84;5051377;28;20244;-66
2022/09/30 05:51:14;;;;;;;12.20;9.13;;;6.40;99.90;;;-141.84;85.66;17883.56;5051622;28;20281;-67
2022/09/30 05:53:42;;;;;;;12.47;10.87;;;6.40;99.90;;;-141.84;85.65;17938.44;5051253;28;20275;-67
2022/09/30 05:56:11;;;;;;;12.20;10.13;;;6.50;99.90;;;-141.84;85.46;17912.00;5051727;28;20232;-68
2022/09/30 05:58:40;;;;;;;12.47;10.03;;;6.60;99.90;;;-141.84;85.79;17863.25;5051695;28;20227;-68
2022/09/30 06:01:12;;;;;;;11.60;10.10;;;6.60;99.90;;;-141.84;86.07;17883.56;5050929;28;20633;-69
2022/09/30 06:03:42;;;;;;;12.27;10.40;;;6.70;99.90;;;-141.84;85.76;17905.91;5051844;28;20236;-69
2022/09/30 06:06:12;;;;;;;12.90;10.63;;;6.70;99.90;;;-141.84;85.67;17979.06;5047065;28;20226;-68
2022/09/30 06:08:42;;;;;;;14.00;10.63;;;6.90;99.90;;;-141.84;85.42;17901.84;5030750;28;20226;-68
2022/09/30 06:11:12;;;;;;;12.23;9.93;;;6.90;99.90;;;-141.84;85.30;17914.03;5030935;28;20222;-69
2022/09/30 06:13:42;;;;;;;13.13;10.87;;;7.00;99.90;;;-141.84;85.33;17909.97;5031310;28;20222;-69
2022/09/30 06:16:12;;;;;;;14.77;12.50;;;7.10;99.90;;;-141.84;84.65;17960.78;5030920;28;20246;-67
2022/09/30 06:18:41;;;;;;;15.07;13.47;;;7.20;99.90;;;-141.84;84.00;17968.91;5035647;28;20232;-69
2022/09/30 06:21:14;;;;;;;19.13;16.93;;;7.30;99.90;;;-141.84;83.69;17968.91;5030946;28;20218;-66
2022/09/30 06:23:43;;;;;;;19.30;17.20;;;7.40;99.90;;;-141.84;83.50;17958.75;5030742;28;20234;-69
2022/09/30 06:26:13;;;;;;;16.33;12.83;;;7.40;99.90;;;-141.84;82.44;17972.97;5043162;28;20225;-67
2022/09/30 06:28:41;;;;;;;10.83;9.73;;;7.50;99.90;;;-141.84;81.42;18033.91;5050907;28;20524;-68
2022/09/30 06:31:10;;;;;;;12.90;10.53;;;7.60;99.90;;;-141.84;81.38;17999.38;5050605;28;20721;-67
2022/09/30 06:33:38;;;;;;;16.73;13.50;;;7.60;99.90;;;-141.84;81.28;18056.25;5050954;28;20677;-68
2022/09/30 06:36:06;;;;;;;18.57;14.53;;;7.80;99.90;;;-141.84;81.75;18054.22;5050593;28;20233;-62
2022/09/30 06:38:37;;;;;;;15.97;14.27;;;7.90;99.90;;;-141.84;80.69;18064.38;5050250;28;20232;-63
2022/09/30 06:41:06;;;;;;;14.93;12.50;;;8.20;99.90;;;-141.84;79.77;18105.00;5050568;28;20229;-63
2022/09/30 06:43:34;;;;;;;14.33;12.70;;;8.40;99.90;;;-141.84;79.17;18121.25;5050131;28;20235;-62
2022/09/30 06:46:15;;;;;;;12.10;10.90;;;8.50;99.90;;;-141.84;78.07;18170.00;5050238;28;20274;-62
2022/09/30 06:48:56;;;;;;;10.33;8.60;;;8.50;99.90;;;-141.84;77.64;18174.06;5039505;28;20237;-61
2022/09/30 06:51:40;;;;;;;10.37;8.87;;;8.60;99.90;;;-141.84;77.22;18198.44;5049776;28;20446;-63
2022/09/30 06:54:11;;;;;;;10.03;8.93;;;8.70;99.90;;;-141.84;75.98;18247.22;5049079;28;20255;-62
2022/09/30 06:56:39;;;;;;;9.30;8.37;;;8.80;99.90;;;-141.84;75.14;18265.50;5048804;28;20650;-62
2022/09/30 06:59:07;;;;;;;10.00;8.53;;;8.80;99.90;;;-141.84;74.34;18271.59;5048772;28;20666;-61
2022/09/30 07:01:35;;;;;;;9.70;8.13;;;8.90;99.90;;;-141.84;74.36;18324.41;5048935;28;20602;-62
2022/09/30 07:04:08;;;;;;;9.37;8.47;;;9.00;99.90;;;-141.84;74.22;18330.50;5049168;28;20716;-62
2022/09/30 07:06:37;;;;;;;10.37;8.80;;;9.10;99.90;;;-141.84;74.08;18320.34;5041591;28;20190;-62
2022/09/30 07:09:07;;;;;;;9.70;8.77;;;9.20;99.90;;;-141.84;72.92;18385.34;5029004;28;20229;-62
2022/09/30 07:11:37;;;;;;;10.60;9.17;;;9.40;99.90;;;-141.84;72.49;18409.72;5029355;28;20226;-61
2022/09/30 07:14:06;;;;;;;10.60;8.63;;;9.40;99.90;;;-141.84;71.61;18446.31;5029394;28;20229;-63
2022/09/30 07:16:34;;;;;;;9.67;8.20;;;9.60;99.90;;;-141.84;71.52;18497.09;5029272;28;20226;-63
2022/09/30 07:19:05;;;;;;;11.33;9.20;;;9.70;99.90;;;-141.84;71.89;18499.13;5029539;28;20245;-62
2022/09/30 07:21:33;;;;;;;11.67;9.50;;;9.70;99.90;;;-141.84;71.20;18556.00;5031256;28;20205;-63
2022/09/30 07:24:02;;;;;;;10.10;9.10;;;9.80;99.90;;;-141.84;71.18;18572.25;5033070;28;20283;-62
2022/09/30 07:26:30;;;;;;;9.43;8.43;;;10.00;99.90;;;-141.84;70.15;18606.81;5033370;28;20384;-62
2022/09/30 07:29:00;;;;;;;11.33;9.23;;;10.10;99.90;;;-141.84;69.62;18608.84;5033248;28;20720;-62
2022/09/30 07:31:28;;;;;;;9.40;8.50;;;10.20;99.90;;;-141.84;69.22;18665.72;5039589;28;20236;-63
2022/09/30 07:34:05;;;;;;;10.03;9.03;;;10.30;99.90;;;-141.84;69.75;18686.03;5053290;28;20236;-62
2022/09/30 07:36:35;;;;;;;9.93;8.70;;;10.40;99.90;;;-141.84;69.95;18679.94;5054331;28;20210;-62
2022/09/30 07:39:08;;;;;;;9.63;8.63;;;10.30;99.90;;;-141.84;70.00;18657.59;5053547;28;20488;-63
2022/09/30 07:41:39;;;;;;;11.73;9.57;;;10.40;99.90;;;-141.84;69.92;18661.66;5053817;28;20236;-62
2022/09/30 07:44:13;;;;;;;12.23;9.23;;;10.50;99.90;;;-141.84;70.00;18686.03;5053509;28;20220;-63
2022/09/30 07:46:43;;;;;;;9.77;8.13;;;10.50;99.90;;;-141.84;69.90;18675.88;5053460;28;20223;-63
2022/09/30 07:49:23;;;;;;;10.87;8.60;;;10.60;99.90;;;-141.84;69.87;18681.97;5053575;28;20428;-65
2022/09/30 07:51:55;;;;;;;11.70;8.93;;;10.70;99.90;;;-141.84;69.48;18722.63;5052322;28;20394;-62
2022/09/30 07:54:27;;;;;;;11.03;9.60;;;10.80;99.90;;;-141.84;69.57;18779.50;5033663;28;20201;-61
2022/09/30 07:56:56;;;;;;;10.83;9.80;;;11.00;99.90;;;-141.84;68.35;18793.72;5033528;28;20587;-61
2022/09/30 07:59:41;;;;;;;11.73;9.23;;;11.00;99.90;;;-141.84;67.99;18877.03;5033330;28;20230;-63
2022/09/30 08:02:16;;;;;;;11.03;9.53;;;11.20;99.90;;;-141.84;67.37;18944.09;5033361;28;20226;-62
2022/09/30 08:04:44;;;;;;;12.17;9.97;;;11.30;99.90;;;-141.84;67.66;18858.75;5033188;28;20237;-63
2022/09/30 08:07:14;;;;;;;12.10;9.13;;;11.40;99.90;;;-141.84;67.82;18905.47;5032844;28;20226;-62
2022/09/30 08:09:43;;;;;;;10.47;9.43;;;11.50;99.90;;;-141.84;67.04;18968.47;5033568;28;20218;-64
2022/09/30 08:12:11;;;;;;;11.30;9.10;;;11.50;99.90;;;-141.84;66.48;18988.78;5033886;28;20236;-63
2022/09/30 08:14:41;;;;;;;11.17;9.17;;;11.50;99.90;;;-141.84;66.17;19013.16;5032847;28;20228;-65
2022/09/30 08:17:09;;;;;;;11.70;9.80;;;11.50;99.90;;;-141.84;66.07;19033.50;5032854;28;20237;-66
2022/09/30 08:19:40;;;;;;;10.70;9.57;;;11.60;99.90;;;-141.84;66.09;19049.75;5032987;28;20230;-61
2022/09/30 08:22:09;;;;;;;10.93;9.47;;;11.60;99.90;;;-141.84;65.73;19098.50;5033009;28;20229;-62
2022/09/30 08:24:37;;;;;;;10.63;9.53;;;11.70;99.90;;;-141.84;65.42;19116.81;5033292;28;20209;-61
2022/09/30 08:27:05;;;;;;;10.37;9.27;;;11.80;99.90;;;-141.84;65.35;19137.13;5032906;28;20221;-62
2022/09/30 08:29:33;;;;;;;11.90;8.97;;;11.80;99.90;;;-141.84;64.97;19159.47;5032712;28;20234;-63
2022/09/30 08:32:22;;;;;;;10.23;7.77;;;11.90;99.90;;;-141.84;64.97;19185.88;5032327;28;20226;-60
2022/09/30 08:34:50;;;;;;;9.37;7.53;;;12.00;99.90;;;-141.84;64.48;19252.94;5032601;28;20237;-62
2022/09/30 08:37:18;;;;;;;7.90;7.20;;;12.10;99.90;;;-141.84;64.19;19273.28;5032374;28;20234;-61
2022/09/30 08:39:47;;;;;;;9.33;7.33;;;12.30;99.90;;;-141.84;63.45;19328.13;5032265;28;20202;-60
2022/09/30 08:42:55;;;;;;;8.63;7.20;;;12.30;99.90;;;-141.84;63.54;19372.84;5033284;28;20202;-62
2022/09/30 08:45:40;;;;;;;12.50;7.97;;;12.40;99.90;;;-141.84;63.33;19378.94;5032649;28;20209;-61
2022/09/30 08:48:33;;;;;;;9.93;7.88;;;12.30;99.90;;;-141.84;63.59;19370.81;5032308;28;20202;-60
2022/09/30 08:51:23;;;;;;;8.25;7.45;;;12.40;99.90;;;-141.84;62.07;19478.50;5032081;28;20226;-65
2022/09/30 08:53:52;;;;;;;8.03;7.23;;;12.50;99.90;;;-141.84;61.88;19500.88;5032753;28;20583;-61
2022/09/30 08:56:25;;;;;;;8.98;7.45;;;12.60;99.90;;;-141.84;62.79;19458.19;5032420;28;20230;-61
2022/09/30 08:59:01;;;;;;;8.00;7.20;;;12.60;99.90;;;-141.84;62.65;19502.91;5032248;28;20234;-62
2022/09/30 09:01:33;;;;;;;8.07;7.35;;;12.70;99.90;;;-141.84;61.93;19547.59;5032209;28;20237;-62
2022/09/30 09:04:07;;;;;;;7.57;6.78;;;12.80;99.90;;;-141.84;61.80;19596.38;5032099;28;20665;-63
2022/09/30 09:06:51;;;;;;;8.30;7.50;;;12.80;99.90;;;-141.84;61.55;19594.34;5032556;28;20215;-62
2022/09/30 09:09:51;;;;;;;7.68;6.88;;;12.90;99.90;;;-141.84;61.34;19639.06;5031690;28;20292;-63
2022/09/30 09:12:37;;;;;;;7.60;6.78;;;13.00;99.90;;;-141.84;60.78;19667.50;5032427;28;20650;-61
2022/09/30 09:15:39;;;;;;;7.32;6.63;;;13.10;99.90;;;-141.84;60.25;19712.22;5031952;28;20229;-62
2022/09/30 09:18:52;;;;;;;7.45;6.80;;;13.10;99.90;;;-141.84;59.66;19750.84;5032329;28;20222;-62
2022/09/30 09:21:40;;;;;;;7.55;6.80;;;13.30;99.90;;;-141.84;60.31;19777.25;5022414;28;20229;-61
2022/09/30 09:24:18;;;;;;;9.95;6.97;;;13.40;99.90;;;-141.84;59.80;19817.91;5033066;28;20206;-64
2022/09/30 09:26:47;;;;;;;6.60;5.75;;;13.40;99.90;;;-141.84;59.51;19846.34;5032804;28;20225;-60
2022/09/30 09:29:42;;;;;;;7.38;6.53;;;13.50;99.90;;;-141.84;59.07;19915.47;5031890;28;20543;-61
2022/09/30 09:32:16;;;;;;;6.75;6.10;;;13.60;99.90;;;-141.84;59.41;19899.19;5043858;28;20315;-61
2022/09/30 09:34:45;;;;;;;5.82;5.32;;;13.70;99.90;;;-141.84;59.07;19901.22;5042782;28;20238;-60
2022/09/30 09:38:23;;;;;;;5.93;5.32;;;13.50;99.90;;;-141.84;58.73;19893.09;5031280;28;20603;-63
2022/09/30 09:40:26;;;;;;;5.60;5.13;;;13.40;99.90;;;-141.84;59.20;19876.84;5031605;28;20226;-63
2022/09/30 09:43:11;;;;;;;7.40;5.57;;;13.30;99.90;;;-141.84;59.49;19878.88;5031537;28;20194;-61
2022/09/30 09:45:51;;;;;;;6.00;5.50;;;13.30;99.90;;;-141.84;59.20;19919.53;5031352;28;20198;-61
2022/09/30 09:48:20;;;;;;;7.45;5.38;;;13.50;99.90;;;-141.84;58.23;19962.19;5031754;28;20210;-62
2022/09/30 09:51:02;;;;;;;5.55;5.05;;;13.60;99.90;;;-141.84;56.42;20076.03;5031101;28;20230;-62
2022/09/30 09:53:49;;;;;;;5.38;4.82;;;13.80;99.90;;;-141.84;56.44;20082.13;5031044;28;20646;-62
2022/09/30 09:56:20;;;;;;;5.78;5.18;;;13.90;99.90;;;-141.84;57.28;20102.44;5030685;28;20226;-62
2022/09/30 09:59:13;;;;;;;6.35;5.55;;;14.00;99.90;;;-141.84;55.92;20139.03;5031292;28;20234;-61
2022/09/30 10:01:48;;;;;;;5.40;4.90;;;14.10;99.90;;;-141.84;56.57;20161.38;5031000;28;20230;-60
2022/09/30 10:04:22;;;;;;;4.60;4.20;;;14.20;99.90;;;-141.84;56.05;20179.69;5031097;28;20745;-61
2022/09/30 10:06:54;;;;;;;5.07;4.68;;;14.20;99.90;;;-141.84;56.20;20143.09;5030911;28;20190;-62
2022/09/30 10:09:28;;;;;;;5.13;4.60;;;14.30;99.90;;;-141.84;54.80;20204.06;5031278;28;20202;-63
2022/09/30 10:12:28;;;;;;;4.97;4.40;;;14.30;99.90;;;-141.84;55.05;20204.06;5030588;28;20232;-63
2022/09/30 10:15:04;;;;;;;6.85;4.68;;;14.40;99.90;;;-141.84;55.02;20248.78;5018402;28;20233;-63
2022/09/30 10:17:35;;;;;;;5.60;3.45;;;14.50;99.90;;;-141.84;54.31;20287.41;5030601;28;20618;-62
2022/09/30 10:20:08;;;;;;;6.13;4.18;;;14.60;99.90;;;-141.84;53.52;20309.75;5030698;28;20221;-63
2022/09/30 10:22:37;;;;;;;4.30;3.90;;;14.70;99.90;;;-141.84;53.57;20313.84;5014018;28;20242;-63
2022/09/30 10:25:23;;;;;;;3.65;3.35;;;14.80;99.90;;;-141.84;52.92;20334.16;5011651;28;20227;-64
2022/09/30 10:27:56;;;;;;;4.35;3.55;;;14.80;99.90;;;-141.84;52.90;20358.56;5011562;28;20194;-63
2022/09/30 10:30:49;;;;;;;4.32;3.92;;;14.90;99.90;;;-141.84;52.27;20391.06;5012261;28;20195;-63
2022/09/30 10:33:26;;;;;;;5.82;4.10;;;14.90;99.90;;;-141.84;51.68;20395.13;5022838;28;20225;-63
2022/09/30 10:36:09;;;;;;;4.32;3.75;;;15.00;99.90;;;-141.84;52.18;20417.50;5030586;28;20237;-62